createdAt,value
2023-07-19T00:02:08.665Z,99622.88
2023-07-19T00:05:12.290Z,99622.66
2023-07-19T00:08:15.695Z,99618.56
2023-07-19T00:11:17.976Z,99608.22
2023-07-19T00:14:20.737Z,99596.69
2023-07-19T00:17:22.828Z,99579.13
2023-07-19T00:20:26.299Z,99571.06
2023-07-19T00:23:28.290Z,99564.13
2023-07-19T00:26:30.291Z,99560.53
2023-07-19T00:29:32.413Z,99565.56
2023-07-19T00:32:34.510Z,99561.34
2023-07-19T00:35:42.484Z,99563.78
2023-07-19T00:38:45.728Z,99556.75
2023-07-19T00:41:47.728Z,99545.63
2023-07-19T00:44:49.782Z,99537.03
2023-07-19T00:47:52.074Z,99530.34
2023-07-19T00:50:56.954Z,99550.53
2023-07-19T00:54:00.930Z,99541.03
2023-07-19T00:57:04.635Z,99545.88
2023-07-19T01:00:08.392Z,99532.16
2023-07-19T01:03:10.719Z,99525.00
2023-07-19T01:06:14.363Z,99536.81
2023-07-19T01:09:16.330Z,99518.97
2023-07-19T01:12:19.392Z,99509.69
2023-07-19T01:15:21.440Z,99513.22
2023-07-19T01:18:23.435Z,99512.31
2023-07-19T01:21:29.173Z,99522.34
2023-07-19T01:24:33.804Z,99525.75
2023-07-19T01:27:38.594Z,99516.41
2023-07-19T01:30:40.704Z,99518.78
2023-07-19T01:33:42.857Z,99518.66
2023-07-19T01:36:44.847Z,99522.72
2023-07-19T01:39:48.218Z,99527.44
2023-07-19T01:42:50.294Z,99530.59
2023-07-19T01:45:53.934Z,99526.19
2023-07-19T01:48:55.920Z,99532.25
2023-07-19T01:51:57.990Z,99528.69
2023-07-19T01:55:01.346Z,99523.72
2023-07-19T01:58:03.593Z,99517.59
2023-07-19T02:01:05.904Z,99507.94
2023-07-19T02:04:08.035Z,99519.09
2023-07-19T02:07:10.120Z,99520.34
2023-07-19T02:10:13.601Z,99524.34
2023-07-19T02:13:15.704Z,99524.69
2023-07-19T02:16:17.754Z,99523.66
2023-07-19T02:19:19.793Z,99523.75
2023-07-19T02:22:21.842Z,99516.94
2023-07-19T02:25:25.230Z,99532.56
2023-07-19T02:28:27.295Z,99550.59
2023-07-19T02:31:29.511Z,99553.31
2023-07-19T02:34:31.714Z,99552.56
2023-07-19T02:37:33.714Z,99560.19
2023-07-19T02:40:38.028Z,99561.16
2023-07-19T02:43:39.968Z,99543.22
2023-07-19T02:46:41.910Z,99553.53
2023-07-19T02:49:43.802Z,99543.50
2023-07-19T02:52:45.768Z,99534.25
2023-07-19T02:55:49.169Z,99531.78
2023-07-19T02:58:51.560Z,99543.81
2023-07-19T03:01:53.544Z,99545.47
2023-07-19T03:04:56.748Z,99552.06
2023-07-19T03:07:58.644Z,99546.75
2023-07-19T03:11:02.060Z,99540.91
2023-07-19T03:14:04.107Z,99551.19
2023-07-19T03:17:06.631Z,99553.50
2023-07-19T03:20:10.826Z,99544.09
2023-07-19T03:23:12.994Z,99553.53
2023-07-19T03:26:16.592Z,99554.72
2023-07-19T03:29:18.549Z,99548.97
2023-07-19T03:32:20.537Z,99551.22
2023-07-19T03:35:22.768Z,99554.88
2023-07-19T03:38:24.745Z,99538.53
2023-07-19T03:41:28.186Z,99553.63
2023-07-19T03:44:30.114Z,99551.59
2023-07-19T03:47:32.256Z,99545.84
2023-07-19T03:50:34.288Z,99549.19
2023-07-19T03:53:36.430Z,99551.22
2023-07-19T03:56:39.806Z,99564.47
2023-07-19T03:59:41.971Z,99561.47
2023-07-19T04:02:43.986Z,99567.91
2023-07-19T04:05:46.150Z,99570.41
2023-07-19T04:08:48.254Z,99573.84
2023-07-19T04:11:51.705Z,99579.91
2023-07-19T04:14:53.874Z,99573.50
2023-07-19T04:17:56.610Z,99579.47
2023-07-19T04:20:59.949Z,99578.66
2023-07-19T04:24:02.028Z,99574.25
2023-07-19T04:27:06.075Z,99575.75
2023-07-19T04:30:09.047Z,99576.63
2023-07-19T04:33:11.775Z,99561.72
2023-07-19T04:36:15.219Z,99570.53
2023-07-19T04:39:18.276Z,99567.44
2023-07-19T04:42:23.488Z,99568.34
2023-07-19T04:45:25.917Z,99560.53
2023-07-19T04:48:27.976Z,99556.31
2023-07-19T04:51:30.082Z,99561.94
2023-07-19T04:54:32.113Z,99566.19
2023-07-19T04:57:35.758Z,99577.19
2023-07-19T05:00:37.797Z,99564.03
2023-07-19T05:03:39.794Z,99569.34
2023-07-19T05:06:41.747Z,99568.84
2023-07-19T05:09:43.910Z,99574.38
2023-07-19T05:12:51.647Z,99564.84
2023-07-19T05:16:05.940Z,99566.50
2023-07-19T05:19:39.306Z,99562.78
2023-07-19T05:22:41.512Z,99572.38
2023-07-19T05:26:01.278Z,99569.88
2023-07-19T05:29:11.966Z,99570.84
2023-07-19T05:32:14.002Z,99560.75
2023-07-19T05:35:16.065Z,99553.88
2023-07-19T05:38:19.120Z,99557.38
2023-07-19T05:41:21.666Z,99571.69
2023-07-19T05:44:25.386Z,99576.75
2023-07-19T05:47:29.892Z,99580.91
2023-07-19T05:50:33.051Z,99580.16
2023-07-19T05:53:35.229Z,99584.41
2023-07-19T05:56:37.289Z,99577.25
2023-07-19T05:59:40.725Z,99575.94
2023-07-19T06:02:53.584Z,99519.44
2023-07-19T06:05:56.743Z,99526.34
2023-07-19T06:08:58.774Z,99531.59
2023-07-19T06:12:01.316Z,99528.28
2023-07-19T06:15:05.681Z,99520.94
2023-07-19T06:18:07.636Z,99532.63
2023-07-19T06:21:09.713Z,99518.47
2023-07-19T06:24:11.786Z,99522.38
2023-07-19T06:27:13.878Z,99528.38
2023-07-19T06:30:17.277Z,99531.50
2023-07-19T06:33:19.297Z,99576.00
2023-07-19T06:36:21.234Z,99579.97
2023-07-19T06:39:23.285Z,99588.31
2023-07-19T06:42:25.277Z,99589.44
2023-07-19T06:45:28.702Z,99581.31
2023-07-19T06:48:30.717Z,99586.25
2023-07-19T06:51:32.748Z,99573.38
2023-07-19T06:54:34.788Z,99563.63
2023-07-19T06:57:36.808Z,99568.03
2023-07-19T07:00:40.380Z,99563.84
2023-07-19T07:03:42.499Z,99534.72
2023-07-19T07:06:44.512Z,99514.75
2023-07-19T07:09:46.706Z,99534.28
2023-07-19T07:12:48.791Z,99533.19
2023-07-19T07:15:53.132Z,99533.03
2023-07-19T07:18:55.214Z,99525.63
2023-07-19T07:21:57.194Z,99520.59
2023-07-19T07:24:59.458Z,99516.81
2023-07-19T07:28:01.474Z,99518.97
2023-07-19T07:31:11.184Z,99529.03
2023-07-19T07:34:13.824Z,99528.72
2023-07-19T07:37:15.892Z,99528.91
2023-07-19T07:40:18.057Z,99524.38
2023-07-19T07:43:20.136Z,99524.94
2023-07-19T07:46:23.503Z,99527.53
2023-07-19T07:49:25.545Z,99527.84
2023-07-19T07:52:27.583Z,99528.63
2023-07-19T07:55:29.738Z,99534.91
2023-07-19T07:58:31.885Z,99531.53
2023-07-19T08:01:35.353Z,99526.63
2023-07-19T08:04:37.400Z,99531.34
2023-07-19T08:07:39.335Z,99535.56
2023-07-19T08:10:41.416Z,99540.72
2023-07-19T08:13:43.349Z,99525.16
2023-07-19T08:16:46.766Z,99519.59
2023-07-19T08:19:48.735Z,99515.13
2023-07-19T08:22:50.838Z,99512.44
2023-07-19T08:25:56.355Z,99513.34
2023-07-19T08:28:58.767Z,99504.38
2023-07-19T08:32:02.369Z,99507.41
2023-07-19T08:35:05.069Z,99508.59
2023-07-19T08:38:07.072Z,99522.13
2023-07-19T08:41:13.420Z,99520.50
2023-07-19T08:44:16.211Z,99527.28
2023-07-19T08:47:19.734Z,99521.56
2023-07-19T08:50:23.037Z,99520.03
2023-07-19T08:53:26.708Z,99525.91
2023-07-19T08:56:32.028Z,99528.16
2023-07-19T08:59:34.122Z,99522.53
2023-07-19T09:02:37.728Z,99527.38
2023-07-19T09:05:39.867Z,99532.75
2023-07-19T09:08:42.340Z,99528.78
2023-07-19T09:11:47.352Z,99539.56
2023-07-19T09:14:49.256Z,99547.13
2023-07-19T09:17:52.748Z,99534.06
2023-07-19T09:20:59.589Z,99539.47
2023-07-19T09:24:05.391Z,99538.84
2023-07-19T09:27:07.540Z,99540.41
2023-07-19T09:30:10.821Z,99540.38
2023-07-19T09:33:17.437Z,99541.41
2023-07-19T09:36:22.367Z,99524.63
2023-07-19T09:39:24.491Z,99515.72
2023-07-19T09:42:26.813Z,99527.00
2023-07-19T09:45:32.935Z,99522.09
2023-07-19T09:48:37.573Z,99532.03
2023-07-19T09:51:43.568Z,99526.59
2023-07-19T09:54:46.174Z,99513.22
2023-07-19T09:57:50.775Z,99513.28
2023-07-19T10:00:52.796Z,99517.34
2023-07-19T10:03:58.728Z,99506.44
2023-07-19T10:07:08.403Z,99505.13
2023-07-19T10:10:15.336Z,99495.38
2023-07-19T10:13:17.366Z,99493.72
2023-07-19T10:16:23.945Z,99490.72
2023-07-19T10:19:28.497Z,99480.66
2023-07-19T10:22:53.278Z,99482.25
2023-07-19T10:25:55.329Z,99479.56
2023-07-19T10:29:02.679Z,99475.41
2023-07-19T10:32:05.364Z,99460.53
2023-07-19T10:35:31.835Z,99452.44
2023-07-19T10:38:34.112Z,99461.66
2023-07-19T10:41:36.340Z,99447.00
2023-07-19T10:44:41.258Z,99443.03
2023-07-19T10:47:43.290Z,99452.53
2023-07-19T10:50:47.893Z,99438.16
2023-07-19T10:53:57.800Z,99436.56
2023-07-19T10:57:00.452Z,99420.34
2023-07-19T11:00:04.432Z,99419.03
2023-07-19T11:03:08.463Z,99428.00
2023-07-19T11:06:11.864Z,99432.19
2023-07-19T11:09:14.135Z,99431.00
2023-07-19T11:12:16.310Z,99421.09
2023-07-19T11:15:18.592Z,99427.72
2023-07-19T11:18:28.150Z,99426.25
2023-07-19T11:21:31.534Z,99409.44
2023-07-19T11:24:38.024Z,99411.00
2023-07-19T11:27:40.406Z,99411.72
2023-07-19T11:30:42.541Z,99419.03
2023-07-19T11:33:49.291Z,99426.03
2023-07-19T11:36:53.167Z,99416.50
2023-07-19T11:39:59.161Z,99416.75
2023-07-19T11:43:01.525Z,99404.38
2023-07-19T11:46:03.515Z,99403.47
2023-07-19T11:49:11.968Z,99399.84
2023-07-19T11:52:15.308Z,99408.72
2023-07-19T11:55:18.122Z,99403.75
2023-07-19T11:58:28.346Z,99401.91
2023-07-19T12:01:37.649Z,99405.25
2023-07-19T12:04:39.741Z,99396.69
2023-07-19T12:07:43.649Z,99389.06
2023-07-19T12:10:45.745Z,99390.47
2023-07-19T12:13:49.131Z,99374.31
2023-07-19T12:16:51.134Z,99373.66
2023-07-19T12:19:54.574Z,99377.50
2023-07-19T12:22:58.039Z,99388.16
2023-07-19T12:26:00.080Z,99362.59
2023-07-19T12:29:02.052Z,99345.63
2023-07-19T12:32:05.196Z,99354.84
2023-07-19T12:35:07.488Z,99324.25
2023-07-19T12:38:11.015Z,99338.59
2023-07-19T12:41:13.008Z,99337.28
2023-07-19T12:44:15.045Z,99315.16
2023-07-19T12:47:17.112Z,99323.41
2023-07-19T12:50:19.227Z,99313.25
2023-07-19T12:53:22.557Z,99312.72
2023-07-19T12:56:25.185Z,99302.31
2023-07-19T12:59:27.187Z,99301.03
2023-07-19T13:02:29.508Z,99313.06
2023-07-19T13:05:31.720Z,99304.28
2023-07-19T13:08:34.959Z,99318.78
2023-07-19T13:11:37.535Z,99301.56
2023-07-19T13:14:41.008Z,99289.09
2023-07-19T13:17:43.204Z,99272.31
2023-07-19T13:20:45.154Z,99265.72
2023-07-19T13:23:49.035Z,99268.31
2023-07-19T13:26:51.153Z,99275.03
2023-07-19T13:29:55.080Z,99264.25
2023-07-19T13:32:57.057Z,99245.53
2023-07-19T13:35:59.281Z,99243.28
2023-07-19T13:39:02.673Z,99230.25
2023-07-19T13:42:06.880Z,99225.34
2023-07-19T13:45:09.834Z,99210.88
2023-07-19T13:48:11.904Z,99208.16
2023-07-19T13:51:13.857Z,99204.69
2023-07-19T13:54:17.120Z,99196.34
2023-07-19T13:57:19.152Z,99186.34
2023-07-19T14:00:21.147Z,99201.66
2023-07-19T14:06:32.029Z,99208.47
2023-07-19T14:09:35.598Z,99199.84
2023-07-19T14:12:38.767Z,99195.00
2023-07-19T14:18:48.375Z,99184.47
2023-07-19T14:21:50.443Z,99195.88
2023-07-19T14:24:53.789Z,99198.03
2023-07-19T14:27:56.774Z,99176.75
2023-07-19T14:30:58.731Z,99181.53
2023-07-19T14:34:00.975Z,99212.84
2023-07-19T14:37:02.920Z,99212.94
2023-07-19T14:40:07.579Z,99221.84
2023-07-19T14:43:09.569Z,99217.50
2023-07-19T14:46:11.655Z,99216.00
2023-07-19T14:49:13.681Z,99235.56
2023-07-19T14:52:15.928Z,99245.88
2023-07-19T14:55:19.519Z,99251.31
2023-07-19T14:58:21.509Z,99256.09
2023-07-19T15:01:23.756Z,99219.31
2023-07-19T15:04:26.123Z,99229.00
2023-07-19T15:07:28.279Z,99237.06
2023-07-19T15:10:31.936Z,99247.75
2023-07-19T15:13:33.942Z,99231.88
2023-07-19T15:16:36.025Z,99216.38
2023-07-19T15:19:39.946Z,99218.31
2023-07-19T15:22:42.194Z,99232.00
2023-07-19T15:25:45.594Z,99224.88
2023-07-19T15:28:48.160Z,99235.47
2023-07-19T15:31:50.010Z,99226.97
2023-07-19T15:34:51.968Z,99224.03
2023-07-19T15:37:53.977Z,99228.34
2023-07-19T15:40:57.388Z,99230.25
2023-07-19T15:43:59.366Z,99214.91
2023-07-19T15:47:01.423Z,99223.44
2023-07-19T15:50:05.327Z,99221.13
2023-07-19T15:53:07.422Z,99217.22
2023-07-19T15:56:11.707Z,99208.72
2023-07-19T15:59:13.666Z,99199.03
2023-07-19T16:02:17.397Z,99192.16
2023-07-19T16:05:19.724Z,99195.28
2023-07-19T16:08:22.327Z,99192.38
2023-07-19T16:11:25.667Z,99187.13
2023-07-19T16:14:27.814Z,99175.19
2023-07-19T16:17:29.778Z,99176.25
2023-07-19T16:20:31.854Z,99171.13
2023-07-19T16:23:34.241Z,99186.06
2023-07-19T16:26:37.612Z,99174.22
2023-07-19T16:29:39.617Z,99172.41
2023-07-19T16:32:41.624Z,99176.63
2023-07-19T16:35:43.537Z,99172.13
2023-07-19T16:38:45.461Z,99192.41
2023-07-19T16:41:48.895Z,99192.75
2023-07-19T16:44:50.980Z,99198.75
2023-07-19T16:47:59.607Z,99193.69
2023-07-19T16:51:02.175Z,99192.44
2023-07-19T16:54:04.320Z,99175.94
2023-07-19T16:57:08.117Z,99172.78
2023-07-19T17:00:16.256Z,99177.34
2023-07-19T17:03:20.115Z,99181.06
2023-07-19T17:06:22.091Z,99185.75
2023-07-19T17:09:24.234Z,99178.00
2023-07-19T17:12:27.702Z,99185.19
2023-07-19T17:15:30.170Z,99184.63
2023-07-19T17:18:33.881Z,99171.53
2023-07-19T17:21:35.988Z,99175.44
2023-07-19T17:24:38.788Z,99178.88
2023-07-19T17:27:42.367Z,99165.78
2023-07-19T17:30:45.076Z,99158.97
2023-07-19T17:33:47.219Z,99163.81
2023-07-19T17:36:49.660Z,99165.28
2023-07-19T17:39:52.026Z,99157.72
2023-07-19T17:42:57.092Z,99152.72
2023-07-19T17:45:59.558Z,99159.94
2023-07-19T17:49:01.540Z,99148.41
2023-07-19T17:52:04.514Z,99130.38
2023-07-19T17:55:07.688Z,99119.66
2023-07-19T17:58:11.721Z,99118.03
2023-07-19T18:01:17.224Z,99112.94
2023-07-19T18:04:19.158Z,99112.72
2023-07-19T18:07:21.499Z,99115.78
2023-07-19T18:10:23.919Z,99125.03
2023-07-19T18:13:28.816Z,99122.31
2023-07-19T18:16:31.865Z,99148.69
2023-07-19T18:19:34.287Z,99132.09
2023-07-19T18:22:37.298Z,99134.03
2023-07-19T18:25:40.068Z,99137.41
2023-07-19T18:28:45.448Z,99153.56
2023-07-19T18:31:48.358Z,99146.19
2023-07-19T18:34:50.690Z,99153.03
2023-07-19T18:37:53.736Z,99145.72
2023-07-19T18:40:56.442Z,99158.78
2023-07-19T18:44:00.214Z,99157.69
2023-07-19T18:47:04.174Z,99157.41
2023-07-19T18:50:07.596Z,99166.94
2023-07-19T18:53:10.209Z,99172.31
2023-07-19T18:56:13.087Z,99174.22
2023-07-19T18:59:17.624Z,99193.13
2023-07-19T19:02:20.395Z,99191.22
2023-07-19T19:05:22.759Z,99176.84
2023-07-19T19:08:25.009Z,99183.38
2023-07-19T19:11:27.888Z,99201.00
2023-07-19T19:14:31.997Z,99188.81
2023-07-19T19:17:36.196Z,99200.84
2023-07-19T19:20:38.797Z,99197.34
2023-07-19T19:23:41.043Z,99195.13
2023-07-19T19:26:58.516Z,99193.75
2023-07-19T19:30:03.691Z,99196.47
2023-07-19T19:33:06.705Z,99213.56
2023-07-19T19:36:10.210Z,99202.94
2023-07-19T19:39:27.214Z,99203.47
2023-07-19T19:42:33.348Z,99200.47
2023-07-19T19:45:40.784Z,99216.22
2023-07-19T19:48:43.541Z,99211.69
2023-07-19T19:51:46.928Z,99190.66
2023-07-19T19:54:49.976Z,99200.91
2023-07-19T19:57:55.242Z,99224.00
2023-07-19T20:00:59.166Z,99213.25
2023-07-19T20:04:04.530Z,99236.34
2023-07-19T20:07:08.199Z,99240.34
2023-07-19T20:13:22.197Z,99241.44
2023-07-19T20:16:31.385Z,99252.69
2023-07-19T20:19:38.329Z,99240.41
2023-07-19T20:22:43.690Z,99236.72
2023-07-19T20:25:48.201Z,99236.06
2023-07-19T20:36:04.931Z,99222.72
2023-07-19T20:38:46.874Z,99232.66
2023-07-19T20:41:50.220Z,99223.03
2023-07-19T20:44:55.876Z,99226.59
2023-07-19T20:48:01.829Z,99222.59
2023-07-19T20:51:10.794Z,99219.81
2023-07-19T20:54:15.359Z,99225.50
2023-07-19T20:57:17.570Z,99229.00
2023-07-19T21:00:21.548Z,99219.41
2023-07-19T21:03:25.271Z,99221.09
2023-07-19T21:06:27.287Z,99234.00
2023-07-19T21:09:29.354Z,99231.41
2023-07-19T21:12:31.374Z,99233.06
2023-07-19T21:15:33.397Z,99227.00
2023-07-19T21:18:36.706Z,99238.34
2023-07-19T21:21:38.689Z,99248.88
2023-07-19T21:24:59.990Z,99257.22
2023-07-19T21:28:02.665Z,99255.34
2023-07-19T21:31:04.968Z,99255.59
2023-07-19T21:34:08.500Z,99256.94
2023-07-19T21:37:10.905Z,99261.78
2023-07-19T21:40:13.216Z,99265.28
2023-07-19T21:43:15.458Z,99256.94
2023-07-19T21:46:17.544Z,99258.31
2023-07-19T21:49:21.429Z,99259.25
2023-07-19T21:52:23.499Z,99260.19
2023-07-19T21:55:25.566Z,99261.13
2023-07-19T21:58:28.318Z,99257.97
2023-07-19T22:01:32.702Z,99258.91
2023-07-19T22:04:38.186Z,99248.22
2023-07-19T22:07:40.122Z,99258.94
2023-07-19T22:10:42.221Z,99245.09
2023-07-19T22:13:44.322Z,99256.22
2023-07-19T22:16:49.933Z,99246.63
2023-07-19T22:19:53.485Z,99244.41
2023-07-19T22:22:55.624Z,99245.38
2023-07-19T22:25:57.959Z,99249.97
2023-07-19T22:29:00.791Z,99243.28
2023-07-19T22:32:03.275Z,99246.88
2023-07-19T22:35:07.642Z,99242.56
2023-07-19T22:38:10.280Z,99233.03
2023-07-19T22:41:12.359Z,99233.41
2023-07-19T22:44:14.357Z,99232.84
2023-07-19T22:47:16.594Z,99226.34
2023-07-19T22:50:20.951Z,99224.41
2023-07-19T22:53:22.929Z,99217.47
2023-07-19T22:56:25.012Z,99225.22
2023-07-19T22:59:27.117Z,99225.31
2023-07-19T23:02:29.171Z,99222.78
2023-07-19T23:05:32.782Z,99226.97
2023-07-19T23:08:34.964Z,99233.34
2023-07-19T23:11:39.469Z,99253.44
2023-07-19T23:14:41.695Z,99239.13
2023-07-19T23:17:43.811Z,99229.53
2023-07-19T23:20:47.344Z,99228.44
2023-07-19T23:23:49.387Z,99230.78
2023-07-19T23:26:51.356Z,99243.03
2023-07-19T23:29:55.384Z,99250.56
2023-07-19T23:32:58.970Z,99249.34
2023-07-19T23:36:02.435Z,99242.41
2023-07-19T23:39:04.699Z,99244.00
2023-07-19T23:42:07.018Z,99239.56
2023-07-19T23:45:10.552Z,99246.03
2023-07-19T23:48:12.694Z,99239.53
2023-07-19T23:51:16.165Z,99223.69
2023-07-19T23:54:19.589Z,99243.09
2023-07-19T23:57:21.801Z,99240.63
